createdAt,value
2023-02-04T00:00:00.589Z,16.1
2023-02-04T00:01:00.443Z,16.1
2023-02-04T00:02:00.456Z,16.1
2023-02-04T00:03:00.494Z,16.1
2023-02-04T00:04:00.607Z,16.1
2023-02-04T00:05:00.389Z,16.1
2023-02-04T00:06:00.556Z,15.5
2023-02-04T00:07:00.436Z,15.5
2023-02-04T00:08:00.423Z,15.5
2023-02-04T00:09:00.435Z,15.5
2023-02-04T00:10:00.421Z,15.5
2023-02-04T00:11:00.477Z,15.5
2023-02-04T00:12:00.473Z,15.5
2023-02-04T00:13:00.582Z,15.5
2023-02-04T00:14:00.480Z,15.5
2023-02-04T00:15:01.009Z,15.5
2023-02-04T00:16:00.965Z,16.5
2023-02-04T00:17:00.425Z,16.5
2023-02-04T00:18:00.453Z,16.5
2023-02-04T00:19:00.488Z,16.5
2023-02-04T00:20:00.455Z,16.5
2023-02-04T00:21:00.511Z,16.5
2023-02-04T00:22:00.482Z,16.5
2023-02-04T00:23:00.539Z,16.5
2023-02-04T00:24:00.436Z,16.5
2023-02-04T00:25:00.452Z,16.5
2023-02-04T00:26:00.446Z,17.0
2023-02-04T00:27:00.492Z,17.0
2023-02-04T00:28:00.585Z,17.0
2023-02-04T00:29:00.478Z,17.0
2023-02-04T00:30:00.426Z,17.0
2023-02-04T00:31:00.449Z,17.0
2023-02-04T00:32:00.708Z,17.0
2023-02-04T00:33:00.494Z,17.0
2023-02-04T00:34:00.415Z,17.0
2023-02-04T00:35:00.417Z,17.0
2023-02-04T00:36:00.445Z,19.1
2023-02-04T00:37:00.433Z,19.1
2023-02-04T00:38:00.417Z,19.1
2023-02-04T00:39:00.436Z,19.1
2023-02-04T00:40:00.451Z,19.1
2023-02-04T00:41:00.453Z,19.1
2023-02-04T00:42:00.423Z,19.1
2023-02-04T00:43:00.483Z,19.1
2023-02-04T00:44:00.485Z,19.1
2023-02-04T00:45:00.427Z,19.1
2023-02-04T00:46:01.419Z,17.4
2023-02-04T00:47:00.419Z,17.4
2023-02-04T00:48:00.412Z,17.4
2023-02-04T00:49:00.394Z,17.4
2023-02-04T00:50:00.516Z,17.4
2023-02-04T00:51:00.601Z,17.4
2023-02-04T00:52:00.538Z,17.4
2023-02-04T00:53:00.410Z,17.4
2023-02-04T00:54:00.351Z,17.4
2023-02-04T00:55:00.753Z,17.4
2023-02-04T00:56:00.432Z,17.7
2023-02-04T00:57:00.473Z,17.7
2023-02-04T00:58:00.388Z,17.7
2023-02-04T00:59:00.474Z,17.7
2023-02-04T01:00:00.673Z,17.7
2023-02-04T01:01:00.632Z,17.7
2023-02-04T01:02:00.428Z,17.7
2023-02-04T01:03:00.578Z,17.7
2023-02-04T01:04:00.468Z,17.7
2023-02-04T01:05:00.463Z,17.7
2023-02-04T01:06:00.596Z,16.8
2023-02-04T01:07:00.465Z,16.8
2023-02-04T01:08:00.515Z,16.8
2023-02-04T01:09:00.766Z,16.8
2023-02-04T01:10:00.429Z,16.8
2023-02-04T01:11:00.466Z,16.8
2023-02-04T01:12:00.486Z,16.8
2023-02-04T01:13:00.393Z,16.8
2023-02-04T01:14:00.466Z,16.8
2023-02-04T01:15:00.471Z,16.8
2023-02-04T01:16:00.635Z,15.9
2023-02-04T01:17:00.476Z,15.9
2023-02-04T01:18:00.848Z,15.9
2023-02-04T01:19:00.565Z,15.9
2023-02-04T01:20:00.423Z,15.9
2023-02-04T01:21:00.531Z,15.9
2023-02-04T01:22:00.481Z,15.9
2023-02-04T01:23:00.439Z,15.9
2023-02-04T01:24:00.426Z,15.9
2023-02-04T01:25:00.709Z,15.9
2023-02-04T01:26:00.432Z,15.6
2023-02-04T01:27:00.441Z,15.6
2023-02-04T01:28:00.616Z,15.6
2023-02-04T01:29:00.440Z,15.6
2023-02-04T01:30:00.388Z,15.6
2023-02-04T01:31:00.467Z,15.6
2023-02-04T01:32:00.564Z,15.6
2023-02-04T01:33:00.487Z,15.6
2023-02-04T01:34:00.416Z,15.6
2023-02-04T01:35:00.468Z,15.6
2023-02-04T01:36:00.457Z,14.5
2023-02-04T01:37:00.411Z,14.5
2023-02-04T01:38:00.444Z,14.5
2023-02-04T01:39:00.608Z,14.5
2023-02-04T01:40:00.543Z,14.5
2023-02-04T01:41:00.544Z,14.5
2023-02-04T01:42:00.526Z,14.5
2023-02-04T01:43:00.518Z,14.5
2023-02-04T01:44:00.390Z,14.5
2023-02-04T01:45:00.529Z,14.5
2023-02-04T01:46:00.649Z,14.0
2023-02-04T01:47:00.550Z,14.0
2023-02-04T01:48:02.226Z,14.0
2023-02-04T01:49:00.647Z,14.0
2023-02-04T01:50:00.916Z,14.0
2023-02-04T01:51:03.477Z,14.0
2023-02-04T01:52:01.538Z,14.0
2023-02-04T01:53:00.818Z,14.0
2023-02-04T01:54:00.668Z,14.0
2023-02-04T01:55:00.640Z,14.0
2023-02-04T01:56:01.414Z,15.1
2023-02-04T01:57:01.010Z,15.1
2023-02-04T01:58:00.551Z,15.1
2023-02-04T01:59:00.452Z,15.1
2023-02-04T02:00:00.420Z,15.1
2023-02-04T02:01:00.662Z,15.1
2023-02-04T02:02:00.512Z,15.1
2023-02-04T02:03:00.431Z,15.1
2023-02-04T02:04:00.716Z,15.1
2023-02-04T02:05:00.418Z,15.1
2023-02-04T02:06:00.465Z,12.1
2023-02-04T02:07:02.745Z,12.1
2023-02-04T02:08:02.332Z,12.1
2023-02-04T02:09:00.680Z,12.1
2023-02-04T02:10:00.861Z,12.1
2023-02-04T02:11:00.674Z,12.1
2023-02-04T02:12:01.442Z,12.1
2023-02-04T02:14:00.458Z,12.1
2023-02-04T02:15:00.583Z,12.1
2023-02-04T02:16:00.467Z,14.3
2023-02-04T02:17:00.562Z,14.3
2023-02-04T02:18:00.710Z,14.3
2023-02-04T02:19:00.457Z,14.3
2023-02-04T02:20:00.474Z,14.3
2023-02-04T02:21:03.110Z,14.3
2023-02-04T02:22:06.277Z,14.3
2023-02-04T02:23:00.510Z,14.3
2023-02-04T02:24:10.256Z,14.3
2023-02-04T02:25:00.436Z,14.3
2023-02-04T02:26:00.510Z,13.7
2023-02-04T02:27:02.472Z,13.7
2023-02-04T02:28:01.037Z,13.7
2023-02-04T02:29:00.452Z,13.7
2023-02-04T02:30:00.525Z,13.7
2023-02-04T02:31:00.521Z,13.7
2023-02-04T02:32:00.477Z,13.7
2023-02-04T02:33:00.537Z,13.7
2023-02-04T02:34:00.623Z,13.7
2023-02-04T02:35:00.554Z,13.7
2023-02-04T02:36:00.761Z,15.1
2023-02-04T02:37:01.253Z,15.1
2023-02-04T02:38:00.489Z,15.1
2023-02-04T02:39:00.443Z,15.1
2023-02-04T02:40:00.777Z,15.1
2023-02-04T02:41:00.453Z,15.1
2023-02-04T02:42:00.868Z,15.1
2023-02-04T02:43:00.704Z,15.1
2023-02-04T02:44:01.178Z,15.1
2023-02-04T02:45:02.419Z,15.1
2023-02-04T02:46:00.957Z,13.3
2023-02-04T02:47:00.443Z,13.3
2023-02-04T02:48:01.267Z,13.3
2023-02-04T02:49:00.409Z,13.3
2023-02-04T02:50:00.449Z,13.3
2023-02-04T02:51:00.612Z,13.3
2023-02-04T02:52:00.441Z,13.3
2023-02-04T02:53:00.458Z,13.3
2023-02-04T02:54:00.444Z,13.3
2023-02-04T02:55:00.561Z,13.3
2023-02-04T02:56:00.484Z,13.8
2023-02-04T02:57:00.488Z,13.8
2023-02-04T02:58:00.561Z,13.8
2023-02-04T02:59:10.305Z,13.8
2023-02-04T03:00:00.457Z,13.8
2023-02-04T03:01:01.539Z,13.8
2023-02-04T03:02:02.374Z,13.8
2023-02-04T03:03:04.345Z,13.8
2023-02-04T03:04:00.475Z,13.8
2023-02-04T03:05:00.476Z,13.8
2023-02-04T03:06:03.017Z,12.7
2023-02-04T03:07:00.937Z,12.7
2023-02-04T03:08:00.647Z,12.7
2023-02-04T03:09:00.644Z,12.7
2023-02-04T03:10:00.811Z,12.7
2023-02-04T03:11:00.448Z,12.7
2023-02-04T03:12:00.900Z,12.7
2023-02-04T03:13:00.675Z,12.7
2023-02-04T03:14:00.786Z,12.7
2023-02-04T03:15:00.492Z,12.7
2023-02-04T03:16:00.552Z,11.4
2023-02-04T03:17:01.666Z,11.4
2023-02-04T03:18:00.808Z,11.4
2023-02-04T03:19:00.802Z,11.4
2023-02-04T03:20:01.304Z,11.4
2023-02-04T03:21:01.152Z,11.4
2023-02-04T03:22:00.508Z,11.4
2023-02-04T03:23:00.473Z,11.4
2023-02-04T03:24:00.436Z,11.4
2023-02-04T03:25:00.714Z,11.4
2023-02-04T03:26:00.970Z,10.8
2023-02-04T03:27:00.456Z,10.8
2023-02-04T03:28:00.556Z,10.8
2023-02-04T03:29:00.474Z,10.8
2023-02-04T03:30:00.486Z,10.8
2023-02-04T03:31:00.754Z,10.8
2023-02-04T03:32:00.602Z,10.8
2023-02-04T03:33:00.397Z,10.8
2023-02-04T03:34:00.439Z,10.8
2023-02-04T03:35:00.468Z,10.8
2023-02-04T03:36:00.700Z,10.8
2023-02-04T03:37:00.434Z,10.8
2023-02-04T03:38:00.432Z,10.8
2023-02-04T03:39:00.478Z,10.8
2023-02-04T03:40:00.539Z,10.8
2023-02-04T03:41:00.578Z,10.8
2023-02-04T03:42:00.433Z,10.8
2023-02-04T03:43:00.444Z,10.8
2023-02-04T03:44:00.460Z,10.8
2023-02-04T03:45:00.501Z,10.8
2023-02-04T03:46:00.659Z,13.6
2023-02-04T03:47:00.433Z,13.6
2023-02-04T03:48:00.423Z,13.6
2023-02-04T03:49:00.438Z,13.6
2023-02-04T03:50:00.427Z,13.6
2023-02-04T03:51:00.524Z,13.6
2023-02-04T03:52:00.828Z,13.6
2023-02-04T03:53:00.443Z,13.6
2023-02-04T03:54:00.434Z,13.6
2023-02-04T03:55:00.466Z,13.6
2023-02-04T03:56:00.425Z,12.7
2023-02-04T03:57:00.468Z,12.7
2023-02-04T03:58:00.831Z,12.7
2023-02-04T03:59:00.457Z,12.7
2023-02-04T04:00:00.526Z,12.7
2023-02-04T04:01:00.475Z,12.7
2023-02-04T04:02:00.602Z,12.7
2023-02-04T04:03:00.743Z,12.7
2023-02-04T04:04:00.424Z,12.7
2023-02-04T04:05:00.489Z,12.7
2023-02-04T04:06:00.467Z,13.1
2023-02-04T04:07:00.502Z,13.1
2023-02-04T04:08:00.570Z,13.1
2023-02-04T04:09:00.483Z,13.1
2023-02-04T04:10:00.572Z,13.1
2023-02-04T04:11:00.456Z,13.1
2023-02-04T04:12:00.440Z,13.1
2023-02-04T04:13:00.575Z,13.1
2023-02-04T04:14:00.538Z,13.1
2023-02-04T04:15:00.444Z,13.1
2023-02-04T04:16:00.487Z,10.1
2023-02-04T04:17:00.476Z,10.1
2023-02-04T04:18:00.518Z,10.1
2023-02-04T04:19:00.467Z,10.1
2023-02-04T04:20:00.394Z,10.1
2023-02-04T04:21:00.639Z,10.1
2023-02-04T04:22:00.407Z,10.1
2023-02-04T04:23:00.460Z,10.1
2023-02-04T04:24:00.559Z,10.1
2023-02-04T04:25:00.541Z,10.1
2023-02-04T04:26:00.457Z,12.0
2023-02-04T04:27:00.460Z,12.0
2023-02-04T04:28:00.566Z,12.0
2023-02-04T04:29:00.462Z,12.0
2023-02-04T04:30:00.478Z,12.0
2023-02-04T04:31:00.457Z,12.0
2023-02-04T04:32:00.565Z,12.0
2023-02-04T04:33:00.409Z,12.0
2023-02-04T04:34:00.433Z,12.0
2023-02-04T04:35:00.544Z,12.0
2023-02-04T04:36:00.419Z,9.6
2023-02-04T04:37:00.460Z,9.6
2023-02-04T04:38:00.990Z,9.6
2023-02-04T04:39:00.461Z,9.6
2023-02-04T04:40:00.532Z,9.6
2023-02-04T04:41:00.705Z,9.6
2023-02-04T04:42:00.444Z,9.6
2023-02-04T04:43:00.479Z,9.6
2023-02-04T04:44:00.488Z,9.6
2023-02-04T04:45:00.412Z,9.6
2023-02-04T04:46:00.461Z,10.4
2023-02-04T04:47:00.491Z,10.4
2023-02-04T04:48:00.456Z,10.4
2023-02-04T04:49:00.456Z,10.4
2023-02-04T04:50:00.474Z,10.4
2023-02-04T04:51:00.414Z,10.4
2023-02-04T04:52:00.451Z,10.4
2023-02-04T04:53:00.464Z,10.4
2023-02-04T04:54:00.446Z,10.4
2023-02-04T04:55:00.481Z,10.4
2023-02-04T04:56:00.467Z,9.8
2023-02-04T04:57:00.423Z,9.8
2023-02-04T04:58:00.404Z,9.8
2023-02-04T04:59:00.409Z,9.8
2023-02-04T05:00:00.439Z,9.8
2023-02-04T05:01:00.509Z,9.8
2023-02-04T05:02:00.393Z,9.8
2023-02-04T05:03:00.487Z,9.8
2023-02-04T05:04:00.480Z,9.8
2023-02-04T05:05:00.543Z,9.8
2023-02-04T05:06:00.421Z,12.6
2023-02-04T05:07:00.484Z,12.6
2023-02-04T05:08:00.490Z,12.6
2023-02-04T05:09:00.483Z,12.6
2023-02-04T05:10:00.640Z,12.6
2023-02-04T05:11:01.094Z,12.6
2023-02-04T05:12:00.358Z,12.6
2023-02-04T05:13:00.445Z,12.6
2023-02-04T05:14:00.390Z,12.6
2023-02-04T05:15:00.513Z,12.6
2023-02-04T05:16:00.546Z,13.1
2023-02-04T05:17:00.443Z,13.1
2023-02-04T05:18:00.637Z,13.1
2023-02-04T05:19:00.630Z,13.1
2023-02-04T05:20:00.453Z,13.1
2023-02-04T05:21:00.452Z,13.1
2023-02-04T05:22:00.489Z,13.1
2023-02-04T05:23:00.371Z,13.1
2023-02-04T05:24:00.624Z,13.1
2023-02-04T05:25:00.416Z,13.1
2023-02-04T05:26:00.661Z,15.6
2023-02-04T05:27:00.423Z,15.6
2023-02-04T05:28:00.599Z,15.6
2023-02-04T05:29:00.635Z,15.6
2023-02-04T05:30:00.702Z,15.6
2023-02-04T05:31:00.517Z,15.6
2023-02-04T05:32:00.496Z,15.6
2023-02-04T05:33:00.423Z,15.6
2023-02-04T05:34:00.450Z,15.6
2023-02-04T05:35:00.457Z,15.6
2023-02-04T05:36:00.752Z,12.9
2023-02-04T05:37:00.417Z,12.9
2023-02-04T05:38:00.421Z,12.9
2023-02-04T05:39:00.399Z,12.9
2023-02-04T05:40:00.535Z,12.9
2023-02-04T05:41:00.544Z,12.9
2023-02-04T05:42:00.606Z,12.9
2023-02-04T05:43:00.451Z,12.9
2023-02-04T05:44:00.440Z,12.9
2023-02-04T05:45:00.434Z,12.9
2023-02-04T05:46:01.045Z,12.1
2023-02-04T05:47:00.450Z,12.1
2023-02-04T05:48:00.443Z,12.1
2023-02-04T05:49:00.377Z,12.1
2023-02-04T05:50:00.470Z,12.1
2023-02-04T05:51:00.421Z,12.1
2023-02-04T05:52:00.461Z,12.1
2023-02-04T05:53:00.485Z,12.1
2023-02-04T05:54:00.479Z,12.1
2023-02-04T05:55:00.636Z,12.1
2023-02-04T05:56:00.423Z,14.4
2023-02-04T05:57:00.399Z,14.4
2023-02-04T05:58:00.500Z,14.4
2023-02-04T05:59:00.464Z,14.4
2023-02-04T06:00:00.420Z,14.4
2023-02-04T06:01:00.557Z,14.4
2023-02-04T06:02:00.372Z,14.4
2023-02-04T06:03:00.604Z,14.4
2023-02-04T06:04:00.513Z,14.4
2023-02-04T06:05:00.413Z,14.4
2023-02-04T06:06:00.397Z,10.3
2023-02-04T06:07:00.477Z,10.3
2023-02-04T06:08:00.445Z,10.3
2023-02-04T06:09:00.781Z,10.3
2023-02-04T06:10:00.708Z,10.3
2023-02-04T06:11:00.460Z,10.3
2023-02-04T06:12:00.484Z,10.3
2023-02-04T06:13:00.455Z,10.3
2023-02-04T06:14:00.621Z,10.3
2023-02-04T06:15:00.550Z,10.3
2023-02-04T06:16:00.477Z,14.6
2023-02-04T06:17:00.429Z,14.6
2023-02-04T06:18:00.465Z,14.6
2023-02-04T06:19:00.629Z,14.6
2023-02-04T06:20:00.877Z,14.6
2023-02-04T06:21:00.504Z,14.6
2023-02-04T06:22:00.429Z,14.6
2023-02-04T06:23:00.403Z,14.6
2023-02-04T06:24:00.376Z,14.6
2023-02-04T06:25:00.664Z,14.6
2023-02-04T06:26:01.706Z,11.7
2023-02-04T06:27:00.370Z,11.7
2023-02-04T06:28:00.434Z,11.7
2023-02-04T06:29:00.617Z,11.7
2023-02-04T06:30:00.450Z,11.7
2023-02-04T06:31:00.643Z,11.7
2023-02-04T06:32:00.485Z,11.7
2023-02-04T06:33:00.420Z,11.7
2023-02-04T06:34:00.420Z,11.7
2023-02-04T06:35:00.437Z,11.7
2023-02-04T06:36:00.753Z,11.7
2023-02-04T06:37:00.496Z,11.4
2023-02-04T06:38:00.399Z,11.4
2023-02-04T06:39:00.408Z,11.4
2023-02-04T06:40:00.500Z,11.4
2023-02-04T06:41:00.471Z,11.4
2023-02-04T06:42:00.710Z,11.4
2023-02-04T06:43:00.401Z,11.4
2023-02-04T06:44:00.446Z,11.4
2023-02-04T06:45:00.462Z,11.4
2023-02-04T06:46:00.631Z,11.4
2023-02-04T06:47:00.550Z,11.3
2023-02-04T06:48:00.595Z,11.3
2023-02-04T06:49:00.428Z,11.3
2023-02-04T06:50:00.645Z,11.3
2023-02-04T06:51:00.390Z,11.3
2023-02-04T06:52:00.481Z,11.3
2023-02-04T06:53:00.400Z,11.3
2023-02-04T06:54:00.416Z,11.3
2023-02-04T06:55:00.432Z,11.3
2023-02-04T06:56:00.412Z,11.3
2023-02-04T06:57:00.640Z,12.3
2023-02-04T06:58:00.630Z,12.3
2023-02-04T06:59:03.045Z,12.3
2023-02-04T07:00:00.416Z,12.3
2023-02-04T07:01:00.464Z,12.3
2023-02-04T07:02:00.567Z,12.3
2023-02-04T07:03:00.551Z,12.3
2023-02-04T07:04:00.554Z,12.3
2023-02-04T07:05:00.408Z,12.3
2023-02-04T07:06:00.404Z,12.3
2023-02-04T07:07:00.479Z,13.2
2023-02-04T07:08:00.451Z,13.2
2023-02-04T07:09:00.505Z,13.2
2023-02-04T07:10:00.444Z,13.2
2023-02-04T07:11:00.418Z,13.2
2023-02-04T07:12:00.407Z,13.2
2023-02-04T07:13:00.465Z,13.2
2023-02-04T07:14:00.435Z,13.2
2023-02-04T07:15:00.441Z,13.2
2023-02-04T07:16:00.472Z,13.2
2023-02-04T07:17:00.480Z,13.5
2023-02-04T07:18:00.366Z,13.5
2023-02-04T07:19:00.402Z,13.5
2023-02-04T07:20:00.529Z,13.5
2023-02-04T07:21:00.404Z,13.5
2023-02-04T07:22:00.466Z,13.5
2023-02-04T07:23:00.391Z,13.5
2023-02-04T07:24:00.364Z,13.5
2023-02-04T07:25:00.448Z,13.5
2023-02-04T07:26:00.431Z,13.5
2023-02-04T07:27:02.538Z,11.3
2023-02-04T07:28:00.708Z,11.3
2023-02-04T07:29:00.461Z,11.3
2023-02-04T07:30:00.517Z,11.3
2023-02-04T07:31:00.594Z,11.3
2023-02-04T07:32:00.612Z,11.3
2023-02-04T07:33:00.463Z,11.3
2023-02-04T07:34:00.439Z,11.3
2023-02-04T07:35:00.387Z,11.3
2023-02-04T07:36:00.642Z,11.3
2023-02-04T07:37:00.498Z,11.7
2023-02-04T07:38:00.464Z,11.7
2023-02-04T07:39:00.402Z,11.7
2023-02-04T07:40:00.469Z,11.7
2023-02-04T07:41:00.455Z,11.7
2023-02-04T07:42:00.527Z,11.7
2023-02-04T07:43:00.412Z,11.7
2023-02-04T07:44:00.708Z,11.7
2023-02-04T07:45:00.421Z,11.7
2023-02-04T07:46:00.541Z,11.7
2023-02-04T07:47:00.444Z,11.2
2023-02-04T07:48:00.413Z,11.2
2023-02-04T07:49:00.445Z,11.2
2023-02-04T07:50:00.514Z,11.2
2023-02-04T07:51:00.445Z,11.2
2023-02-04T07:52:00.474Z,11.2
2023-02-04T07:53:00.513Z,11.2
2023-02-04T07:54:00.388Z,11.2
2023-02-04T07:55:00.444Z,11.2
2023-02-04T07:56:00.468Z,11.2
2023-02-04T07:57:00.465Z,11.4
2023-02-04T07:58:00.383Z,11.4
2023-02-04T07:59:00.548Z,11.4
2023-02-04T08:00:00.426Z,11.4
2023-02-04T08:01:00.430Z,11.4
2023-02-04T08:02:00.473Z,11.4
2023-02-04T08:03:00.443Z,11.4
2023-02-04T08:04:00.429Z,11.4
2023-02-04T08:05:00.432Z,11.4
2023-02-04T08:06:01.002Z,11.4
2023-02-04T08:07:00.420Z,9.7
2023-02-04T08:08:00.615Z,9.7
2023-02-04T08:09:00.422Z,9.7
2023-02-04T08:10:00.459Z,9.7
2023-02-04T08:11:00.392Z,9.7
2023-02-04T08:12:00.408Z,9.7
2023-02-04T08:13:00.391Z,9.7
2023-02-04T08:14:00.400Z,9.7
2023-02-04T08:15:00.498Z,9.7
2023-02-04T08:16:00.553Z,9.7
2023-02-04T08:17:00.334Z,10.9
2023-02-04T08:18:00.398Z,10.9
2023-02-04T08:19:00.534Z,10.9
2023-02-04T08:20:00.430Z,10.9
2023-02-04T08:21:00.399Z,10.9
2023-02-04T08:22:00.431Z,10.9
2023-02-04T08:23:00.408Z,10.9
2023-02-04T08:24:00.377Z,10.9
2023-02-04T08:25:00.420Z,10.9
2023-02-04T08:26:00.577Z,10.9
2023-02-04T08:27:00.401Z,11.3
2023-02-04T08:28:00.459Z,11.3
2023-02-04T08:29:00.431Z,11.3
2023-02-04T08:30:00.396Z,11.3
2023-02-04T08:31:00.663Z,11.3
2023-02-04T08:32:00.633Z,11.3
2023-02-04T08:33:00.372Z,11.3
2023-02-04T08:34:00.419Z,11.3
2023-02-04T08:35:00.503Z,11.3
2023-02-04T08:36:00.442Z,11.3
2023-02-04T08:37:00.543Z,11.6
2023-02-04T08:38:00.435Z,11.6
2023-02-04T08:39:00.341Z,11.6
2023-02-04T08:40:00.438Z,11.6
2023-02-04T08:41:00.413Z,11.6
2023-02-04T08:42:00.383Z,11.6
2023-02-04T08:43:00.490Z,11.6
2023-02-04T08:44:00.420Z,11.6
2023-02-04T08:45:00.382Z,11.6
2023-02-04T08:46:00.401Z,11.6
2023-02-04T08:47:00.413Z,11.9
2023-02-04T08:48:00.394Z,11.9
2023-02-04T08:49:00.441Z,11.9
2023-02-04T08:50:00.502Z,11.9
2023-02-04T08:51:00.454Z,11.9
2023-02-04T08:52:00.429Z,11.9
2023-02-04T08:53:00.436Z,11.9
2023-02-04T08:54:00.518Z,11.9
2023-02-04T08:55:00.508Z,11.9
2023-02-04T08:56:00.467Z,11.9
2023-02-04T08:57:00.816Z,11.4
2023-02-04T08:58:00.436Z,11.4
2023-02-04T08:59:01.219Z,11.4
2023-02-04T09:00:00.437Z,11.4
2023-02-04T09:01:00.520Z,11.4
2023-02-04T09:02:00.488Z,11.4
2023-02-04T09:03:00.428Z,11.4
2023-02-04T09:04:00.388Z,11.4
2023-02-04T09:05:00.514Z,11.4
2023-02-04T09:06:00.472Z,11.4
2023-02-04T09:07:00.488Z,10.9
2023-02-04T09:08:00.516Z,10.9
2023-02-04T09:09:00.636Z,10.9
2023-02-04T09:10:00.565Z,10.9
2023-02-04T09:11:00.430Z,10.9
2023-02-04T09:12:00.449Z,10.9
2023-02-04T09:13:00.534Z,10.9
2023-02-04T09:14:00.468Z,10.9
2023-02-04T09:15:00.425Z,10.9
2023-02-04T09:16:00.400Z,10.9
2023-02-04T09:17:00.414Z,12.0
2023-02-04T09:18:00.429Z,12.0
2023-02-04T09:19:00.451Z,12.0
2023-02-04T09:20:00.535Z,12.0
2023-02-04T09:21:00.478Z,12.0
2023-02-04T09:22:00.497Z,12.0
2023-02-04T09:23:00.434Z,12.0
2023-02-04T09:24:00.461Z,12.0
2023-02-04T09:25:00.476Z,12.0
2023-02-04T09:26:00.458Z,12.0
2023-02-04T09:27:00.453Z,10.8
2023-02-04T09:28:00.536Z,10.8
2023-02-04T09:29:00.464Z,10.8
2023-02-04T09:30:00.526Z,10.8
2023-02-04T09:31:00.593Z,10.8
2023-02-04T09:32:00.645Z,10.8
2023-02-04T09:33:00.471Z,10.8
2023-02-04T09:34:00.411Z,10.8
2023-02-04T09:35:00.460Z,10.8
2023-02-04T09:36:00.793Z,10.8
2023-02-04T09:37:00.388Z,11.9
2023-02-04T09:38:00.537Z,11.9
2023-02-04T09:39:00.426Z,11.9
2023-02-04T09:40:00.470Z,11.9
2023-02-04T09:41:01.940Z,11.9
2023-02-04T09:42:00.440Z,11.9
2023-02-04T09:43:01.337Z,11.9
2023-02-04T09:44:00.786Z,11.9
2023-02-04T09:45:01.642Z,11.9
2023-02-04T09:46:01.159Z,11.9
2023-02-04T09:47:00.716Z,12.5
2023-02-04T09:48:02.044Z,12.5
2023-02-04T09:49:00.481Z,12.5
2023-02-04T09:50:00.509Z,12.5
2023-02-04T09:51:03.848Z,12.5
2023-02-04T09:52:00.493Z,12.5
2023-02-04T09:53:02.149Z,12.5
2023-02-04T09:54:10.344Z,12.5
2023-02-04T09:55:00.469Z,12.5
2023-02-04T09:56:00.426Z,12.5
2023-02-04T09:57:00.459Z,10.7
2023-02-04T09:58:00.926Z,10.7
2023-02-04T09:59:00.420Z,10.7
2023-02-04T10:00:00.485Z,10.7
2023-02-04T10:01:05.641Z,10.7
2023-02-04T10:02:01.312Z,10.7
2023-02-04T10:03:01.974Z,10.7
2023-02-04T10:04:01.052Z,10.7
2023-02-04T10:05:00.569Z,10.7
2023-02-04T10:06:00.506Z,10.7
2023-02-04T10:07:00.540Z,10.9
2023-02-04T10:08:00.434Z,10.9
2023-02-04T10:09:00.461Z,10.9
2023-02-04T10:10:00.483Z,10.9
2023-02-04T10:11:00.462Z,10.9
2023-02-04T10:12:00.479Z,10.9
2023-02-04T10:13:01.961Z,10.9
2023-02-04T10:14:00.408Z,10.9
2023-02-04T10:15:00.414Z,10.9
2023-02-04T10:16:01.109Z,10.9
2023-02-04T10:17:00.748Z,9.7
2023-02-04T10:18:02.337Z,9.7
2023-02-04T10:19:02.210Z,9.7
2023-02-04T10:20:00.466Z,9.7
2023-02-04T10:21:08.192Z,9.7
2023-02-04T10:22:02.364Z,9.7
2023-02-04T10:23:00.382Z,9.7
2023-02-04T10:24:01.628Z,9.7
2023-02-04T10:25:00.463Z,9.7
2023-02-04T10:26:00.449Z,9.7
2023-02-04T10:27:08.286Z,10.2
2023-02-04T10:28:00.548Z,10.2
2023-02-04T10:29:01.559Z,10.2
2023-02-04T10:30:00.424Z,10.2
2023-02-04T10:31:00.647Z,10.2
2023-02-04T10:32:00.510Z,10.2
2023-02-04T10:33:10.286Z,10.2
2023-02-04T10:34:03.794Z,10.2
2023-02-04T10:35:01.390Z,10.2
2023-02-04T10:36:00.443Z,10.2
2023-02-04T10:37:10.246Z,9.3
2023-02-04T10:38:02.734Z,9.3
2023-02-04T10:39:02.237Z,9.3
2023-02-04T10:40:00.485Z,9.3
2023-02-04T10:41:01.310Z,9.3
2023-02-04T10:42:00.764Z,9.3
2023-02-04T10:43:08.519Z,9.3
2023-02-04T10:44:06.780Z,9.3
2023-02-04T10:45:01.268Z,9.3
2023-02-04T10:46:01.421Z,9.3
2023-02-04T10:47:01.225Z,9.9
2023-02-04T10:48:00.511Z,9.9
2023-02-04T10:49:02.709Z,9.9
2023-02-04T10:50:00.406Z,9.9
2023-02-04T10:51:00.468Z,9.9
2023-02-04T10:52:01.924Z,9.9
2023-02-04T10:53:00.672Z,9.9
2023-02-04T10:54:00.482Z,9.9
2023-02-04T10:55:02.204Z,9.9
2023-02-04T10:56:00.667Z,9.9
2023-02-04T10:57:10.268Z,11.0
2023-02-04T10:58:00.456Z,11.0
2023-02-04T10:59:00.692Z,11.0
2023-02-04T11:00:01.488Z,11.0
2023-02-04T11:01:00.595Z,11.0
2023-02-04T11:02:01.848Z,11.0
2023-02-04T11:03:00.468Z,11.0
2023-02-04T11:04:00.518Z,11.0
2023-02-04T11:05:00.666Z,11.0
2023-02-04T11:06:00.723Z,11.0
2023-02-04T11:07:00.609Z,11.0
2023-02-04T11:08:01.014Z,11.0
2023-02-04T11:09:00.576Z,11.0
2023-02-04T11:10:00.583Z,11.0
2023-02-04T11:11:03.139Z,11.0
2023-02-04T11:12:00.829Z,11.0
2023-02-04T11:13:02.792Z,11.0
2023-02-04T11:14:00.937Z,11.0
2023-02-04T11:15:00.453Z,11.0
2023-02-04T11:16:10.462Z,11.0
2023-02-04T11:17:01.047Z,10.9
2023-02-04T11:18:02.952Z,10.9
2023-02-04T11:19:10.254Z,10.9
2023-02-04T11:20:10.258Z,10.9
2023-02-04T11:21:00.388Z,10.9
2023-02-04T11:22:04.893Z,10.9
2023-02-04T11:23:10.314Z,10.9
2023-02-04T11:24:10.293Z,10.9
2023-02-04T11:25:00.551Z,10.9
2023-02-04T11:26:01.622Z,10.9
2023-02-04T11:27:10.315Z,10.4
2023-02-04T11:28:01.341Z,10.4
2023-02-04T11:29:00.443Z,10.4
2023-02-04T11:30:04.867Z,10.4
2023-02-04T11:31:01.441Z,10.4
2023-02-04T11:32:03.752Z,10.4
2023-02-04T11:33:01.478Z,10.4
2023-02-04T11:34:10.310Z,10.4
2023-02-04T11:35:10.321Z,10.4
2023-02-04T11:36:01.378Z,10.4
2023-02-04T11:37:00.440Z,11.5
2023-02-04T11:38:00.435Z,11.5
2023-02-04T11:39:10.310Z,11.5
2023-02-04T11:40:00.890Z,11.5
2023-02-04T11:41:00.673Z,11.5
2023-02-04T11:42:00.889Z,11.5
2023-02-04T11:43:03.386Z,11.5
2023-02-04T11:44:00.427Z,11.5
2023-02-04T11:45:07.775Z,11.5
2023-02-04T11:46:02.815Z,11.5
2023-02-04T11:47:01.434Z,24.4
2023-02-04T11:48:03.602Z,24.4
2023-02-04T11:49:00.657Z,24.4
2023-02-04T11:50:02.022Z,24.4
2023-02-04T11:51:02.418Z,24.4
2023-02-04T11:52:04.884Z,24.4
2023-02-04T11:53:00.902Z,24.4
2023-02-04T11:54:00.423Z,24.4
2023-02-04T11:55:00.458Z,24.4
2023-02-04T11:56:00.574Z,24.4
2023-02-04T11:57:00.494Z,13.7
2023-02-04T11:58:00.475Z,13.7
2023-02-04T11:59:00.529Z,13.7
2023-02-04T12:00:00.487Z,13.7
2023-02-04T12:01:00.435Z,13.7
2023-02-04T12:02:05.208Z,13.7
2023-02-04T12:03:02.498Z,13.7
2023-02-04T12:04:01.909Z,13.7
2023-02-04T12:05:09.033Z,13.7
2023-02-04T12:06:00.536Z,13.7
2023-02-04T12:07:02.049Z,14.4
2023-02-04T12:08:09.441Z,14.4
2023-02-04T12:09:04.348Z,14.4
2023-02-04T12:10:10.106Z,14.4
2023-02-04T12:11:00.442Z,14.4
2023-02-04T12:12:01.483Z,14.4
2023-02-04T12:13:10.272Z,14.4
2023-02-04T12:14:09.490Z,14.4
2023-02-04T12:15:01.615Z,14.4
2023-02-04T12:16:01.520Z,14.4
2023-02-04T12:17:00.462Z,12.8
2023-02-04T12:18:01.334Z,12.8
2023-02-04T12:19:00.441Z,12.8
2023-02-04T12:20:00.455Z,12.8
2023-02-04T12:21:00.781Z,12.8
2023-02-04T12:22:00.447Z,12.8
2023-02-04T12:23:00.470Z,12.8
2023-02-04T12:24:01.082Z,12.8
2023-02-04T12:25:00.412Z,12.8
2023-02-04T12:26:00.580Z,12.8
2023-02-04T12:27:00.444Z,12.9
2023-02-04T12:28:00.609Z,12.9
2023-02-04T12:29:00.389Z,12.9
2023-02-04T12:30:00.550Z,12.9
2023-02-04T12:31:00.577Z,12.9
2023-02-04T12:32:00.511Z,12.9
2023-02-04T12:33:00.741Z,12.9
2023-02-04T12:34:00.897Z,12.9
2023-02-04T12:35:00.557Z,12.9
2023-02-04T12:36:00.529Z,12.9
2023-02-04T12:37:00.463Z,13.8
2023-02-04T12:38:00.489Z,13.8
2023-02-04T12:39:00.407Z,13.8
2023-02-04T12:40:00.491Z,13.8
2023-02-04T12:41:00.486Z,13.8
2023-02-04T12:42:00.468Z,13.8
2023-02-04T12:43:00.645Z,13.8
2023-02-04T12:44:00.470Z,13.8
2023-02-04T12:45:00.577Z,13.8
2023-02-04T12:46:00.440Z,13.8
2023-02-04T12:47:00.575Z,13.7
2023-02-04T12:48:00.661Z,13.7
2023-02-04T12:49:00.415Z,13.7
2023-02-04T12:50:00.373Z,13.7
2023-02-04T12:51:00.400Z,13.7
2023-02-04T12:52:00.496Z,13.7
2023-02-04T12:53:00.425Z,13.7
2023-02-04T12:54:00.424Z,13.7
2023-02-04T12:55:00.405Z,13.7
2023-02-04T12:56:00.497Z,13.7
2023-02-04T12:57:00.448Z,13.4
2023-02-04T12:58:00.453Z,13.4
2023-02-04T12:59:00.529Z,13.4
2023-02-04T13:00:00.433Z,13.4
2023-02-04T13:01:02.153Z,13.4
2023-02-04T13:02:00.473Z,13.4
2023-02-04T13:03:00.459Z,13.4
2023-02-04T13:04:00.387Z,13.4
2023-02-04T13:05:00.411Z,13.4
2023-02-04T13:06:00.458Z,13.4
2023-02-04T13:07:01.890Z,14.2
2023-02-04T13:08:00.674Z,14.2
2023-02-04T13:09:00.419Z,14.2
2023-02-04T13:10:00.507Z,14.2
2023-02-04T13:11:00.363Z,14.2
2023-02-04T13:12:00.589Z,14.2
2023-02-04T13:13:01.976Z,14.2
2023-02-04T13:14:00.508Z,14.2
2023-02-04T13:15:00.510Z,14.2
2023-02-04T13:16:00.453Z,14.2
2023-02-04T13:17:00.445Z,22.5
2023-02-04T13:18:00.488Z,22.5
2023-02-04T13:19:00.470Z,22.5
2023-02-04T13:20:00.468Z,22.5
2023-02-04T13:21:00.546Z,22.5